Ostrica, Louisiana
Current Conditions -  °F | °C
As of 2:51 AM on Wednesday 22 Oct 2014 (Local Time) from KBVE Reporting Station
Clear Clear  
Wind Chill: 21°   Ceiling: Unl
Heat Index: 21°   Visibility: 10mi
Dew Point: 17°   Wind: 5mph
Humidity: 78%   Direction: 360°N
Pressure: 30"   Gusts: NA
Location:  29.2996°N, 89.4367°W
Report Text: KBVE 220751Z AUTO 36004KT 10SM CLR 21/17 A3000 RMK AO2 SLP159 T02110172
Loading
Personal Weather Stations






























Interactive Weather Map
Tropical Storm Tracking
New forecast layout! Learn more

10-Day Weather Forecast

Advertisements
Track Severe Weather on mobile